map of BCE home
BCE - Airport
Location
City:  Bryce Canyon, Utah, United States
ICAO:KBCE
IATA:BCE
FAA LID:BCE

Details
Type:Airport (Airfield)
Use:Public/Civil
Latitude:3742'23"N (37.706446)
Longitude:11208'45"W (-112.145798)
Datum:WGS 1984
Elevation:7590 ft (2313 m)
Variation:10.91E (WMM2015v2 magnetic declination)
-0.09 annual change
Runways:1
Longest:7394 × 75 ft (2254 × 23 m), paved

Weather
METAR:KBCE 041353Z AUTO 18009KT 10SM FEW006 BKN021 OVC027 M03/M04 A2976 RMK AO2 SLP045 T10281039
TAF:KBCE 041146Z 0412/0512 15011KT P6SM BKN006 OVC020
FM041700 19015G25KT P6SM SCT015 BKN025
FM050200 16010G16KT 2SM -SN BR OVC010

Related Locations
Nearby:
Farthest:RRG: 11165 mi / 17969 km
Plaine Corail [Sir Gatan Duval Airport (Plaine Corail Airport)], Rodrigues Island, MU

Find:

   beyond  
but within

Other Information
Maps:
NOTAMs:
Links:
Sources:

  
  • flag of United States
  • flag of Utah
  

Sectional Chart

Flight Planning
at skyvector.com

Satellite Image

Google Maps Satellite view

 

Copyright © 2004-2019 Karl L. Swartz. All rights reserved.
The Great Circle Mapper name and logo are trademarks of the Great Circle Mapper.
All other trademarks mentioned herein belong to their respective owners.
Please see credits for attibutions and further copyright information.

  Follow gcmap on Facebook Follow gcmap on Twitter GCmap on LinkedIn

hCard Microformat

Geo Microformat